עמוד ראשי
METAR-TAF:

METAR-TAF

שדות תעופה :

Kodiak, אלסקה, ארצות הברית

קו רוחב: 57-45N, קו אורך: 152-30W, גובה: 22מטר

תצפית מזג אוויר נוכחית

הדו"ח נערך לפני 29דקות, בשעה 16:22 UTC
רוח 5קשר מכיוון מזרח
טמפרטורת 8 צלסיוס
לחות 93%
לחץ 1017 hPa
ראות: 2.8קילומטר
מעונן בגובה 700רגל
אד

METAR: PADQ 191622Z 10005KT 1 3/4SM BR OVC007 08/07 A3004 RMK AO2 P0001 T00780072

זמן: 08:51 (16:51 UTC)

תחזית

הדו"ח נערך לפני 50דקות, בשעה 16:01 UTC
תחזית בתוקף מ 19 ב 16 UTC עד 20 ב 12 UTC
רוח 5קשר מכיוון מזרח
ראות: 10קילומטר
עננים פזורים בגובה 400רגל
מעונן בגובה 1300רגל
גשם קל
זמנית מ -
19 ב 16 UTC עד 19 ב 20 UTC
ראות: 4.8קילומטר
עננים בינוניים בגובה 400רגל
אד
מ 19 ב 2000UTC
רוח 9קשר מכיוון מזרח
ראות: 10קילומטר
עננים פזורים בגובה 600רגל
עננים בינוניים בגובה 1500רגל
מעונן בגובה 2500רגל
גשם קל,

TAF: PADQ 191601Z 1916/2012 09005KT P6SM -RA SCT004 OVC013 TEMPO 1916/1920 3SM BR BKN004 FM192000 08009KT P6SM -RA SCT006 BKN015 OVC025

תצפיות ותחזיות מזג אוויר לגבי יותר מ- 4,000 שדות תעופה ברחבי העולם. דוחות METAR ו- TAF.

התחנות הזמינות מסומנות בנקודות צהובות ואדומות על גבי המפה.

העבר את העכבר לנקודה הצבעונית על מנת לראות את שם התחנה.

לאחר מכן, לחץ כדי לראות את תוכן ואת תחזיות מזג האוויר.

כדי לשנות את המפה: לחץ על הכפתורים הירוקים עם הפלוס השחור כדי להתקרב; על הכפתור הירוק עם המקף כדי להתרחק; או בחיצים הירוקים למפות סמוכות.


METAR-TAF: